Time,TemperatureF,DewpointF,PressureIn,WindDirection,WindDirectionDegrees,WindSpeedMPH,WindSpeedGustMPH,Humidity,HourlyPrecipIn,Conditions,Clouds,dailyrainin,SoftwareType,DateUTC
2013-05-10 00:10:00,58.2,51.0,29.87,WNW,284,0.0,0.0,78,0.01,,,0.00,weatherlink.com 1.10,2013-05-10 04:10:00,
2013-05-10 00:25:00,58.0,51.0,29.86,WNW,284,0.0,0.0,77,0.01,,,0.00,weatherlink.com 1.10,2013-05-10 04:25:00,
2013-05-10 00:40:00,57.7,51.0,29.86,WNW,284,0.0,0.0,78,0.01,,,0.00,weatherlink.com 1.10,2013-05-10 04:40:00,
2013-05-10 00:55:00,57.5,51.0,29.86,WNW,284,0.0,0.0,78,0.00,,,0.00,weatherlink.com 1.10,2013-05-10 04:55:00,
2013-05-10 01:10:00,57.4,50.0,29.87,WNW,284,0.0,0.0,77,0.01,,,0.01,weatherlink.com 1.10,2013-05-10 05:10:00,
2013-05-10 01:25:00,57.2,50.0,29.87,WNW,284,0.0,0.0,76,0.05,,,0.05,weatherlink.com 1.10,2013-05-10 05:25:00,
2013-05-10 01:40:00,56.9,48.0,29.87,SSE,153,0.0,0.0,73,0.09,,,0.09,weatherlink.com 1.10,2013-05-10 05:40:00,
2013-05-10 01:55:00,56.5,48.0,29.86,SSE,153,0.0,0.0,73,0.14,,,0.14,weatherlink.com 1.10,2013-05-10 05:55:00,
2013-05-10 02:11:00,56.5,48.0,29.84,SE,141,0.0,0.0,73,0.16,,,0.17,weatherlink.com 1.10,2013-05-10 06:11:00,
2013-05-10 02:26:00,56.0,47.0,29.83,ESE,118,0.0,0.0,73,0.12,,,0.17,weatherlink.com 1.10,2013-05-10 06:26:00,
2013-05-10 02:41:00,56.1,47.0,29.82,ENE,63,0.0,0.0,72,0.08,,,0.17,weatherlink.com 1.10,2013-05-10 06:41:00,
2013-05-10 02:56:00,56.3,47.0,29.81,NNW,338,0.0,0.0,72,0.02,,,0.17,weatherlink.com 1.10,2013-05-10 06:56:00,
2013-05-10 03:11:00,56.5,48.0,29.81,NNE,16,0.0,0.0,72,0.02,,,0.19,weatherlink.com 1.10,2013-05-10 07:11:00,
2013-05-10 03:26:00,56.8,48.0,29.80,NNE,22,0.0,0.0,72,0.03,,,0.20,weatherlink.com 1.10,2013-05-10 07:26:00,
2013-05-10 03:41:00,57.1,48.0,29.80,North,6,0.0,0.0,72,0.04,,,0.21,weatherlink.com 1.10,2013-05-10 07:41:00,
2013-05-10 03:56:00,56.9,48.0,29.79,NNW,332,0.0,0.0,72,0.04,,,0.21,weatherlink.com 1.10,2013-05-10 07:56:00,
2013-05-10 04:11:00,56.7,48.0,29.79,NE,49,2.0,2.0,73,0.05,,,0.24,weatherlink.com 1.10,2013-05-10 08:11:00,
2013-05-10 04:26:00,56.3,48.0,29.78,NNE,25,0.0,4.0,73,0.05,,,0.25,weatherlink.com 1.10,2013-05-10 08:26:00,
2013-05-10 04:41:00,55.8,47.0,29.77,NNW,335,0.0,4.0,73,0.06,,,0.27,weatherlink.com 1.10,2013-05-10 08:41:00,
2013-05-10 04:56:00,55.0,46.0,29.77,NNW,333,2.0,5.0,73,0.06,,,0.27,weatherlink.com 1.10,2013-05-10 08:56:00,
2013-05-10 05:11:00,54.5,46.0,29.77,North,4,0.0,4.0,73,0.04,,,0.28,weatherlink.com 1.10,2013-05-10 09:11:00,
2013-05-10 05:26:00,54.3,46.0,29.77,ESE,121,0.0,2.0,73,0.03,,,0.28,weatherlink.com 1.10,2013-05-10 09:26:00,
2013-05-10 05:41:00,54.0,46.0,29.77,North,359,0.0,3.0,73,0.01,,,0.28,weatherlink.com 1.10,2013-05-10 09:41:00,
2013-05-10 05:56:00,53.9,45.0,29.77,East,79,0.0,4.0,73,0.01,,,0.28,weatherlink.com 1.10,2013-05-10 09:56:00,
2013-05-10 06:11:00,53.7,45.0,29.77,ENE,61,0.0,5.0,73,0.01,,,0.29,weatherlink.com 1.10,2013-05-10 10:11:00,
2013-05-10 06:26:00,53.7,45.0,29.77,NE,48,0.0,5.0,73,0.01,,,0.29,weatherlink.com 1.10,2013-05-10 10:26:00,
2013-05-10 06:41:00,53.6,45.0,29.77,NW,304,0.0,4.0,73,0.02,,,0.30,weatherlink.com 1.10,2013-05-10 10:41:00,
2013-05-10 06:56:00,53.7,45.0,29.77,NE,56,0.0,5.0,73,0.02,,,0.30,weatherlink.com 1.10,2013-05-10 10:56:00,
2013-05-10 07:11:00,53.6,45.0,29.77,NNE,14,0.0,4.0,73,0.01,,,0.30,weatherlink.com 1.10,2013-05-10 11:11:00,
2013-05-10 07:26:00,53.6,46.0,29.77,NW,320,1.0,6.0,74,0.01,,,0.30,weatherlink.com 1.10,2013-05-10 11:26:00,
2013-05-10 07:41:00,53.5,45.0,29.77,NNW,335,0.0,3.0,74,0.01,,,0.31,weatherlink.com 1.10,2013-05-10 11:41:00,
2013-05-10 07:56:00,53.0,45.0,29.77,NNW,345,1.0,5.0,74,0.01,,,0.31,weatherlink.com 1.10,2013-05-10 11:56:00,
2013-05-10 08:11:00,52.0,44.0,29.78,NE,56,7.0,11.0,74,0.01,,,0.31,weatherlink.com 1.10,2013-05-10 12:11:00,
2013-05-10 08:26:00,51.3,43.0,29.78,East,90,3.0,7.0,74,0.01,,,0.31,weatherlink.com 1.10,2013-05-10 12:26:00,
2013-05-10 08:42:00,51.1,43.0,29.78,NNE,23,0.0,5.0,74,0.00,,,0.31,weatherlink.com 1.10,2013-05-10 12:42:00,
2013-05-10 08:57:00,50.5,43.0,29.79,ENE,71,4.0,6.0,75,0.00,,,0.31,weatherlink.com 1.10,2013-05-10 12:57:00,
2013-05-10 09:12:00,49.5,42.0,29.79,NNE,28,6.0,7.0,75,0.00,,,0.31,weatherlink.com 1.10,2013-05-10 13:12:00,
2013-05-10 09:27:00,49.1,42.0,29.79,SE,133,2.0,8.0,75,0.00,,,0.31,weatherlink.com 1.10,2013-05-10 13:27:00,
2013-05-10 09:42:00,48.9,41.0,29.79,WSW,247,1.0,9.0,75,0.00,,,0.31,weatherlink.com 1.10,2013-05-10 13:42:00,
2013-05-10 09:57:00,48.5,41.0,29.79,South,176,2.0,8.0,75,0.01,,,0.32,weatherlink.com 1.10,2013-05-10 13:57:00,
2013-05-10 10:12:00,48.3,41.0,29.80,NE,51,3.0,4.0,75,0.01,,,0.32,weatherlink.com 1.10,2013-05-10 14:12:00,
2013-05-10 10:27:00,47.2,40.0,29.80,ESE,105,0.0,7.0,75,0.02,,,0.33,weatherlink.com 1.10,2013-05-10 14:27:00,
2013-05-10 10:42:00,46.6,39.0,29.81,NE,53,1.0,8.0,75,0.03,,,0.34,weatherlink.com 1.10,2013-05-10 14:42:00,
2013-05-10 10:57:00,46.4,39.0,29.82,ENE,76,3.0,7.0,75,0.03,,,0.35,weatherlink.com 1.10,2013-05-10 14:57:00,
2013-05-10 11:12:00,46.0,39.0,29.82,ENE,63,1.0,6.0,76,0.03,,,0.35,weatherlink.com 1.10,2013-05-10 15:12:00,
2013-05-10 11:27:00,46.1,39.0,29.83,ESE,122,0.0,7.0,76,0.03,,,0.36,weatherlink.com 1.10,2013-05-10 15:27:00,
2013-05-10 11:42:00,46.1,39.0,29.84,NNW,329,2.0,6.0,76,0.02,,,0.36,weatherlink.com 1.10,2013-05-10 15:42:00,
2013-05-10 11:57:00,45.7,39.0,29.84,WNW,282,0.0,10.0,76,0.01,,,0.36,weatherlink.com 1.10,2013-05-10 15:57:00,
2013-05-10 12:12:00,45.9,39.0,29.84,NE,49,3.0,6.0,76,0.02,,,0.37,weatherlink.com 1.10,2013-05-10 16:12:00,
2013-05-10 12:27:00,46.1,39.0,29.84,North,8,1.0,6.0,76,0.01,,,0.37,weatherlink.com 1.10,2013-05-10 16:27:00,
2013-05-10 12:42:00,45.6,38.0,29.84,North,8,8.0,8.0,76,0.01,,,0.37,weatherlink.com 1.10,2013-05-10 16:42:00,
2013-05-10 12:57:00,45.5,38.0,29.84,NNW,337,0.0,4.0,76,0.03,,,0.39,weatherlink.com 1.10,2013-05-10 16:57:00,
2013-05-10 13:12:00,45.6,38.0,29.84,NE,43,3.0,7.0,76,0.04,,,0.41,weatherlink.com 1.10,2013-05-10 17:12:00,
2013-05-10 13:27:00,45.6,38.0,29.84,NNE,18,0.0,3.0,76,0.05,,,0.42,weatherlink.com 1.10,2013-05-10 17:27:00,
2013-05-10 13:42:00,45.8,39.0,29.85,ENE,58,0.0,5.0,76,0.05,,,0.42,weatherlink.com 1.10,2013-05-10 17:42:00,
2013-05-10 13:57:00,45.8,39.0,29.86,NNW,333,3.0,6.0,76,0.04,,,0.43,weatherlink.com 1.10,2013-05-10 17:57:00,
2013-05-10 14:12:00,45.5,38.0,29.87,NNW,335,3.0,3.0,76,0.02,,,0.43,weatherlink.com 1.10,2013-05-10 18:12:00,
2013-05-10 14:27:00,45.5,38.0,29.88,NNW,344,0.0,3.0,76,0.01,,,0.43,weatherlink.com 1.10,2013-05-10 18:27:00,
2013-05-10 14:42:00,45.7,39.0,29.87,North,350,0.0,4.0,76,0.01,,,0.43,weatherlink.com 1.10,2013-05-10 18:42:00,
2013-05-10 14:57:00,45.8,39.0,29.87,East,80,0.0,4.0,76,0.00,,,0.43,weatherlink.com 1.10,2013-05-10 18:57:00,
2013-05-10 15:12:00,46.6,39.0,29.87,WSW,238,0.0,1.0,76,0.00,,,0.43,weatherlink.com 1.10,2013-05-10 19:12:00,
2013-05-10 15:27:00,46.9,39.0,29.87,NNW,332,2.0,3.0,75,0.00,,,0.43,weatherlink.com 1.10,2013-05-10 19:27:00,
2013-05-10 15:42:00,46.1,39.0,29.87,NE,43,1.0,5.0,76,0.00,,,0.43,weatherlink.com 1.10,2013-05-10 19:42:00,
2013-05-10 15:57:00,46.1,39.0,29.87,NNW,345,1.0,5.0,76,0.00,,,0.43,weatherlink.com 1.10,2013-05-10 19:57:00,
2013-05-10 16:12:00,46.3,39.0,29.88,North,356,1.0,5.0,76,0.00,,,0.43,weatherlink.com 1.10,2013-05-10 20:12:00,
2013-05-10 16:27:00,46.4,39.0,29.88,NNW,337,3.0,5.0,76,0.00,,,0.43,weatherlink.com 1.10,2013-05-10 20:27:00,
2013-05-10 16:42:00,46.5,40.0,29.88,NW,325,1.0,4.0,77,0.01,,,0.44,weatherlink.com 1.10,2013-05-10 20:42:00,
2013-05-10 16:57:00,46.4,39.0,29.88,NE,51,0.0,2.0,76,0.01,,,0.44,weatherlink.com 1.10,2013-05-10 20:57:00,
2013-05-10 17:12:00,46.5,39.0,29.87,NNE,30,0.0,3.0,76,0.01,,,0.44,weatherlink.com 1.10,2013-05-10 21:12:00,
2013-05-10 17:27:00,47.0,40.0,29.88,NNE,33,0.0,1.0,76,0.01,,,0.44,weatherlink.com 1.10,2013-05-10 21:27:00,
2013-05-10 17:42:00,47.1,40.0,29.87,ENE,68,0.0,2.0,76,0.00,,,0.44,weatherlink.com 1.10,2013-05-10 21:42:00,
2013-05-10 18:13:00,46.6,40.0,29.88,NNW,342,2.0,5.0,77,0.00,,,0.44,weatherlink.com 1.10,2013-05-10 22:13:00,
2013-05-10 18:28:00,46.7,40.0,29.88,NNW,343,0.0,3.0,77,0.00,,,0.44,weatherlink.com 1.10,2013-05-10 22:28:00,
2013-05-10 18:43:00,46.7,40.0,29.88,NW,319,1.0,4.0,77,0.00,,,0.44,weatherlink.com 1.10,2013-05-10 22:43:00,
2013-05-10 18:58:00,46.9,40.0,29.88,East,93,0.0,2.0,77,0.00,,,0.44,weatherlink.com 1.10,2013-05-10 22:58:00,
2013-05-10 19:13:00,47.1,40.0,29.88,NE,36,0.0,3.0,77,0.00,,,0.44,weatherlink.com 1.10,2013-05-10 23:13:00,
2013-05-10 19:28:00,47.2,41.0,29.89,NNW,338,2.0,2.0,78,0.00,,,0.44,weatherlink.com 1.10,2013-05-10 23:28:00,
2013-05-10 19:43:00,47.3,41.0,29.89,NE,49,1.0,2.0,78,0.00,,,0.44,weatherlink.com 1.10,2013-05-10 23:43:00,
2013-05-10 19:58:00,47.3,41.0,29.89,NNW,343,0.0,1.0,78,0.00,,,0.44,weatherlink.com 1.10,2013-05-10 23:58:00,
2013-05-10 20:13:00,47.3,41.0,29.90,NNW,335,0.0,1.0,78,0.00,,,0.44,weatherlink.com 1.10,2013-05-11 00:13:00,
2013-05-10 20:28:00,47.1,41.0,29.91,NNE,20,1.0,3.0,78,0.00,,,0.44,weatherlink.com 1.10,2013-05-11 00:28:00,
2013-05-10 20:43:00,47.0,40.0,29.91,NNW,348,0.0,2.0,78,0.00,,,0.44,weatherlink.com 1.10,2013-05-11 00:43:00,
2013-05-10 20:58:00,46.9,40.0,29.92,NW,309,0.0,3.0,78,0.00,,,0.44,weatherlink.com 1.10,2013-05-11 00:58:00,
2013-05-10 21:13:00,46.9,40.0,29.92,NE,46,0.0,2.0,78,0.00,,,0.44,weatherlink.com 1.10,2013-05-11 01:13:00,
2013-05-10 21:28:00,46.8,41.0,29.92,North,11,0.0,2.0,79,0.00,,,0.44,weatherlink.com 1.10,2013-05-11 01:28:00,
2013-05-10 21:43:00,46.7,41.0,29.92,ENE,58,2.0,3.0,79,0.00,,,0.44,weatherlink.com 1.10,2013-05-11 01:43:00,
2013-05-10 21:58:00,46.7,41.0,29.92,NW,315,0.0,1.0,79,0.00,,,0.44,weatherlink.com 1.10,2013-05-11 01:58:00,
2013-05-10 22:13:00,46.6,40.0,29.93,NNE,21,0.0,2.0,79,0.00,,,0.44,weatherlink.com 1.10,2013-05-11 02:13:00,
2013-05-10 22:28:00,46.6,40.0,29.92,North,6,0.0,1.0,79,0.00,,,0.44,weatherlink.com 1.10,2013-05-11 02:28:00,
2013-05-10 22:43:00,46.4,40.0,29.92,ENE,59,0.0,1.0,79,0.00,,,0.44,weatherlink.com 1.10,2013-05-11 02:43:00,
2013-05-10 22:58:00,46.3,40.0,29.92,North,3,0.0,1.0,79,0.00,,,0.44,weatherlink.com 1.10,2013-05-11 02:58:00,
2013-05-10 23:13:00,46.5,40.0,29.92,North,4,0.0,0.0,79,0.00,,,0.44,weatherlink.com 1.10,2013-05-11 03:13:00,
2013-05-10 23:28:00,46.6,41.0,29.92,North,4,0.0,0.0,80,0.00,,,0.44,weatherlink.com 1.10,2013-05-11 03:28:00,
2013-05-10 23:43:00,46.8,41.0,29.92,WNW,297,0.0,0.0,80,0.00,,,0.44,weatherlink.com 1.10,2013-05-11 03:43:00,
2013-05-10 23:58:00,47.0,41.0,29.92,West,277,0.0,1.0,79,0.00,,,0.44,weatherlink.com 1.10,2013-05-11 03:58:00,